createdAt,value
2018-09-21T00:01:16.701Z,17.51
2018-09-21T00:03:49.285Z,17.48
2018-09-21T00:06:17.745Z,17.44
2018-09-21T00:08:46.201Z,17.44
2018-09-21T00:11:14.695Z,17.40
2018-09-21T00:13:43.202Z,17.39
2018-09-21T00:16:11.694Z,17.39
2018-09-21T00:18:40.149Z,17.30
2018-09-21T00:21:08.609Z,17.29
2018-09-21T00:23:37.291Z,17.24
2018-09-21T00:26:05.959Z,17.22
2018-09-21T00:28:34.526Z,17.18
2018-09-21T00:31:03.056Z,17.13
2018-09-21T00:33:31.730Z,17.12
2018-09-21T00:36:00.218Z,17.04
2018-09-21T00:38:28.716Z,17.01
2018-09-21T00:40:57.236Z,17.02
2018-09-21T00:43:25.714Z,17.02
2018-09-21T00:45:54.192Z,17.03
2018-09-21T00:48:22.655Z,17.04
2018-09-21T00:50:51.125Z,17.06
2018-09-21T00:53:19.616Z,17.06
2018-09-21T00:55:48.105Z,17.04
2018-09-21T00:58:16.589Z,17.07
2018-09-21T01:00:45.041Z,17.19
2018-09-21T01:03:13.555Z,17.22
2018-09-21T01:05:42.182Z,17.22
2018-09-21T01:08:10.703Z,17.21
2018-09-21T01:10:39.165Z,17.20
2018-09-21T01:13:07.789Z,17.19
2018-09-21T01:15:36.509Z,17.18
2018-09-21T01:18:05.440Z,17.15
2018-09-21T01:20:34.056Z,17.11
2018-09-21T01:23:02.682Z,17.10
2018-09-21T01:25:31.359Z,17.09
2018-09-21T01:27:59.889Z,17.07
2018-09-21T01:30:28.362Z,17.03
2018-09-21T01:32:56.778Z,17.00
2018-09-21T01:35:26.065Z,16.98
2018-09-21T01:37:54.487Z,16.92
2018-09-21T01:40:23.018Z,16.89
2018-09-21T01:42:51.465Z,16.91
2018-09-21T01:45:19.989Z,17.01
2018-09-21T01:47:48.439Z,17.04
2018-09-21T01:50:16.973Z,17.07
2018-09-21T01:52:45.394Z,17.03
2018-09-21T01:55:13.923Z,16.95
2018-09-21T01:57:42.374Z,16.88
2018-09-21T02:00:10.922Z,16.84
2018-09-21T02:02:39.451Z,16.87
2018-09-21T02:05:07.982Z,16.83
2018-09-21T02:07:36.566Z,16.88
2018-09-21T02:10:05.285Z,16.94
2018-09-21T02:12:33.715Z,16.90
2018-09-21T02:15:03.534Z,16.91
2018-09-21T02:17:32.008Z,16.88
2018-09-21T02:20:01.483Z,16.91
2018-09-21T02:22:29.952Z,16.92
2018-09-21T02:24:58.444Z,16.91
2018-09-21T02:27:26.913Z,16.93
2018-09-21T02:29:55.406Z,16.86
2018-09-21T02:32:23.906Z,16.89
2018-09-21T02:34:52.375Z,16.89
2018-09-21T02:37:20.826Z,16.91
2018-09-21T02:39:49.330Z,16.84
2018-09-21T02:42:17.799Z,16.74
2018-09-21T02:44:46.316Z,16.66
2018-09-21T02:47:14.782Z,16.58
2018-09-21T02:49:43.250Z,16.51
2018-09-21T02:52:11.762Z,16.49
2018-09-21T02:54:40.278Z,16.47
2018-09-21T02:57:08.806Z,16.46
2018-09-21T02:59:37.265Z,16.40
2018-09-21T03:02:06.038Z,16.34
2018-09-21T03:04:38.723Z,16.37
2018-09-21T03:07:07.246Z,16.33
2018-09-21T03:09:35.756Z,16.32
2018-09-21T03:12:04.437Z,16.38
2018-09-21T03:14:32.870Z,16.38
2018-09-21T03:17:01.377Z,16.42
2018-09-21T03:19:29.842Z,16.44
2018-09-21T03:21:58.357Z,16.40
2018-09-21T03:24:26.786Z,16.36
2018-09-21T03:26:55.305Z,16.32
2018-09-21T03:29:23.781Z,16.34
2018-09-21T03:31:52.263Z,16.32
2018-09-21T03:34:20.734Z,16.22
2018-09-21T03:36:49.418Z,16.20
2018-09-21T03:39:18.102Z,16.17
2018-09-21T03:41:46.598Z,16.11
2018-09-21T03:44:15.074Z,16.15
2018-09-21T03:46:43.578Z,16.15
2018-09-21T03:49:12.033Z,16.23
2018-09-21T03:51:40.798Z,16.21
2018-09-21T03:54:09.293Z,16.19
2018-09-21T03:56:38.441Z,16.20
2018-09-21T03:59:07.046Z,16.17
2018-09-21T04:01:35.669Z,16.17
2018-09-21T04:04:04.572Z,16.18
2018-09-21T04:06:33.142Z,16.21
2018-09-21T04:09:01.631Z,16.24
2018-09-21T04:11:30.100Z,16.21
2018-09-21T04:13:58.609Z,16.27
2018-09-21T04:16:27.058Z,16.33
2018-09-21T04:18:55.487Z,16.34
2018-09-21T04:21:23.925Z,16.35
2018-09-21T04:23:52.367Z,16.31
2018-09-21T04:26:20.902Z,16.25
2018-09-21T04:28:49.703Z,16.25
2018-09-21T04:31:18.230Z,16.25
2018-09-21T04:33:46.795Z,16.26
2018-09-21T04:36:15.291Z,16.26
2018-09-21T04:38:43.742Z,16.21
2018-09-21T04:41:12.300Z,16.15
2018-09-21T04:43:40.820Z,16.17
2018-09-21T04:46:09.267Z,16.25
2018-09-21T04:48:37.754Z,16.20
2018-09-21T04:51:06.250Z,16.19
2018-09-21T04:53:34.762Z,16.16
2018-09-21T04:56:03.502Z,16.16
2018-09-21T04:58:31.985Z,16.18
2018-09-21T05:01:00.403Z,16.22
2018-09-21T05:03:28.846Z,16.24
2018-09-21T05:05:57.301Z,16.26
2018-09-21T05:08:25.813Z,16.32
2018-09-21T05:10:54.290Z,16.39
2018-09-21T05:13:22.787Z,16.43
2018-09-21T05:15:51.270Z,16.39
2018-09-21T05:18:19.737Z,16.41
2018-09-21T05:20:48.430Z,16.40
2018-09-21T05:23:17.157Z,16.41
2018-09-21T05:25:45.831Z,16.41
2018-09-21T05:28:14.298Z,16.41
2018-09-21T05:30:42.977Z,16.39
2018-09-21T05:33:11.450Z,16.43
2018-09-21T05:35:39.942Z,16.45
2018-09-21T05:38:08.417Z,16.46
2018-09-21T05:40:36.909Z,16.50
2018-09-21T05:43:06.197Z,16.56
2018-09-21T05:45:34.804Z,16.59
2018-09-21T05:48:03.435Z,16.63
2018-09-21T05:50:31.927Z,16.69
2018-09-21T05:53:00.430Z,16.69
2018-09-21T05:55:28.917Z,16.75
2018-09-21T05:57:57.406Z,16.81
2018-09-21T06:00:25.882Z,16.86
2018-09-21T06:02:54.376Z,16.93
2018-09-21T06:05:22.862Z,17.04
2018-09-21T06:07:51.318Z,17.15
2018-09-21T06:10:19.807Z,17.26
2018-09-21T06:12:48.297Z,17.46
2018-09-21T06:15:16.771Z,17.61
2018-09-21T06:17:45.209Z,17.74
2018-09-21T06:20:13.736Z,17.91
2018-09-21T06:22:45.154Z,18.12
2018-09-21T06:25:10.982Z,18.31
2018-09-21T06:27:39.469Z,18.52
2018-09-21T06:30:08.152Z,18.71
2018-09-21T06:32:36.729Z,18.91
2018-09-21T06:35:05.493Z,19.14
2018-09-21T06:37:34.004Z,19.41
2018-09-21T06:40:02.681Z,19.70
2018-09-21T06:42:31.171Z,20.03
2018-09-21T06:44:59.701Z,20.51
2018-09-21T06:47:28.155Z,21.06
2018-09-21T06:49:56.724Z,21.50
2018-09-21T06:52:25.210Z,21.78
2018-09-21T06:54:53.733Z,22.10
2018-09-21T06:57:22.170Z,22.42
2018-09-21T06:59:50.703Z,22.61
2018-09-21T07:02:19.239Z,22.83
2018-09-21T07:04:47.881Z,22.98
2018-09-21T07:07:16.398Z,23.16
2018-09-21T07:09:44.883Z,23.40
2018-09-21T07:12:13.373Z,23.74
2018-09-21T07:14:41.841Z,23.99
2018-09-21T07:17:10.381Z,23.93
2018-09-21T07:22:12.635Z,23.96
2018-09-21T07:24:41.139Z,24.04
2018-09-21T07:27:09.605Z,24.10
2018-09-21T07:29:38.085Z,24.32
2018-09-21T07:32:06.917Z,24.47
2018-09-21T07:34:35.499Z,24.55
2018-09-21T07:37:04.115Z,24.64
2018-09-21T07:39:32.605Z,24.77
2018-09-21T07:42:01.075Z,24.93
2018-09-21T07:44:29.614Z,24.95
2018-09-21T07:46:58.224Z,24.88
2018-09-21T07:49:26.722Z,24.78
2018-09-21T07:51:55.238Z,24.74
2018-09-21T07:54:23.806Z,24.66
2018-09-21T07:56:52.298Z,24.52
2018-09-21T07:59:20.747Z,24.61
2018-09-21T08:01:49.276Z,24.66
2018-09-21T08:04:17.710Z,24.44
2018-09-21T08:06:46.245Z,24.32
2018-09-21T08:09:15.022Z,24.24
2018-09-21T08:11:43.542Z,24.21
2018-09-21T08:14:12.098Z,24.24
2018-09-21T08:16:40.563Z,24.24
2018-09-21T08:19:10.138Z,24.45
2018-09-21T08:21:38.861Z,24.77
2018-09-21T08:24:07.382Z,24.91
2018-09-21T08:26:36.457Z,25.01
2018-09-21T08:29:04.992Z,24.98
2018-09-21T08:31:33.550Z,25.04
2018-09-21T08:34:02.004Z,24.97
2018-09-21T08:36:30.567Z,24.86
2018-09-21T08:38:59.046Z,24.87
2018-09-21T08:41:27.539Z,24.93
2018-09-21T08:43:55.999Z,25.11
2018-09-21T08:46:24.451Z,25.13
2018-09-21T08:48:52.876Z,25.06
2018-09-21T08:51:21.340Z,25.25
2018-09-21T09:00:49.099Z,27.25
2018-09-21T09:03:17.665Z,27.58
2018-09-21T09:05:52.047Z,27.86
2018-09-21T09:08:21.530Z,28.17
2018-09-21T09:10:50.197Z,28.50
2018-09-21T09:13:19.478Z,29.04
2018-09-21T09:15:48.796Z,29.49
2018-09-21T09:18:17.498Z,29.56
2018-09-21T09:20:46.162Z,29.45
2018-09-21T09:23:14.957Z,29.53
2018-09-21T09:25:43.451Z,29.79
2018-09-21T09:28:11.984Z,29.93
2018-09-21T09:30:40.710Z,30.32
2018-09-21T09:33:09.262Z,30.33
2018-09-21T09:35:37.784Z,30.76
2018-09-21T09:38:06.802Z,31.55
2018-09-21T09:40:35.326Z,32.20
2018-09-21T09:43:04.275Z,33.10
2018-09-21T09:45:32.670Z,33.27
2018-09-21T09:48:01.214Z,32.97
2018-09-21T09:50:29.733Z,32.86
2018-09-21T09:52:58.174Z,33.40
2018-09-21T09:55:26.730Z,32.94
2018-09-21T09:57:55.222Z,32.17
2018-09-21T10:00:29.138Z,31.39
2018-09-21T10:02:57.602Z,31.10
2018-09-21T10:05:26.038Z,30.60
2018-09-21T10:07:54.562Z,30.92
2018-09-21T10:10:23.087Z,31.29
2018-09-21T10:12:51.522Z,31.13
2018-09-21T10:15:20.128Z,30.93
2018-09-21T10:17:48.741Z,30.78
2018-09-21T10:20:17.274Z,30.96
2018-09-21T10:22:45.735Z,31.30
2018-09-21T10:25:14.249Z,31.71
2018-09-21T10:27:42.744Z,32.48
2018-09-21T10:30:11.199Z,33.39
2018-09-21T10:32:39.654Z,33.91
2018-09-21T10:35:08.106Z,33.88
2018-09-21T10:37:37.560Z,33.59
2018-09-21T10:40:06.623Z,33.49
2018-09-21T10:42:35.263Z,33.11
2018-09-21T10:45:03.945Z,32.42
2018-09-21T10:47:32.417Z,32.28
2018-09-21T10:50:00.897Z,31.89
2018-09-21T10:52:29.650Z,32.20
2018-09-21T10:54:58.641Z,32.65
2018-09-21T10:57:27.501Z,32.70
2018-09-21T10:59:56.039Z,32.03
2018-09-21T11:02:24.518Z,31.32
2018-09-21T11:04:53.111Z,31.18
2018-09-21T11:07:21.618Z,31.06
2018-09-21T11:09:50.058Z,31.30
2018-09-21T11:12:18.517Z,30.98
2018-09-21T11:14:47.035Z,31.16
2018-09-21T11:17:15.525Z,31.61
2018-09-21T11:19:44.003Z,31.89
2018-09-21T11:22:12.451Z,31.36
2018-09-21T11:24:40.964Z,30.90
2018-09-21T11:27:09.365Z,30.56
2018-09-21T11:29:37.828Z,30.06
2018-09-21T11:32:06.734Z,29.30
2018-09-21T11:34:35.364Z,28.70
2018-09-21T11:37:04.118Z,28.07
2018-09-21T11:39:32.684Z,27.68
2018-09-21T11:42:01.125Z,26.27
2018-09-21T11:44:29.635Z,24.98
2018-09-21T11:46:58.152Z,24.58
2018-09-21T11:49:26.605Z,24.53
2018-09-21T11:51:55.065Z,24.69
2018-09-21T11:54:23.788Z,24.87
2018-09-21T11:56:52.218Z,25.05
2018-09-21T11:59:20.877Z,25.20
2018-09-21T12:01:49.417Z,25.38
2018-09-21T12:04:17.934Z,25.58
2018-09-21T12:06:46.593Z,25.62
2018-09-21T12:09:15.122Z,25.70
2018-09-21T12:11:43.649Z,25.62
2018-09-21T12:14:12.251Z,25.61
2018-09-21T12:16:40.725Z,25.63
2018-09-21T12:19:09.203Z,25.58
2018-09-21T12:21:38.003Z,25.61
2018-09-21T12:24:06.754Z,25.67
2018-09-21T12:26:35.425Z,25.68
2018-09-21T12:29:04.164Z,25.63
2018-09-21T12:31:32.776Z,25.71
2018-09-21T12:34:01.334Z,25.83
2018-09-21T12:36:30.013Z,26.02
2018-09-21T12:38:58.566Z,26.20
2018-09-21T12:41:27.291Z,26.72
2018-09-21T12:43:55.751Z,27.44
2018-09-21T12:46:30.011Z,28.03
2018-09-21T12:49:02.464Z,28.93
2018-09-21T12:51:31.307Z,29.37
2018-09-21T12:53:59.922Z,28.87
2018-09-21T12:56:28.438Z,28.47
2018-09-21T12:58:57.076Z,27.76
2018-09-21T13:01:25.579Z,27.46
2018-09-21T13:03:54.034Z,27.37
2018-09-21T13:06:22.572Z,27.34
2018-09-21T13:08:51.238Z,27.10
2018-09-21T13:11:19.724Z,26.75
2018-09-21T13:13:48.276Z,26.76
2018-09-21T13:16:16.782Z,26.92
2018-09-21T13:18:45.261Z,27.07
2018-09-21T13:21:13.777Z,27.09
2018-09-21T13:23:42.387Z,27.22
2018-09-21T13:26:10.910Z,27.53
2018-09-21T13:28:39.360Z,27.54
2018-09-21T13:31:07.886Z,27.40
2018-09-21T13:33:36.388Z,27.34
2018-09-21T13:36:05.313Z,27.06
2018-09-21T13:38:33.826Z,27.11
2018-09-21T13:41:02.420Z,27.09
2018-09-21T13:43:30.985Z,27.03
2018-09-21T13:45:59.477Z,26.88
2018-09-21T13:48:27.961Z,26.91
2018-09-21T13:50:56.449Z,26.85
2018-09-21T13:53:24.912Z,26.76
2018-09-21T13:55:53.366Z,26.63
2018-09-21T13:58:22.042Z,26.43
2018-09-21T14:00:50.946Z,26.42
2018-09-21T14:03:19.457Z,26.35
2018-09-21T14:05:48.175Z,26.44
2018-09-21T14:08:16.846Z,26.45
2018-09-21T14:10:45.428Z,26.49
2018-09-21T14:13:13.954Z,26.45
2018-09-21T14:15:42.771Z,26.33
2018-09-21T14:18:11.306Z,26.31
2018-09-21T14:20:39.838Z,26.37
2018-09-21T14:23:08.355Z,26.32
2018-09-21T14:25:36.848Z,26.26
2018-09-21T14:28:05.691Z,26.16
2018-09-21T14:30:34.152Z,26.00
2018-09-21T14:33:02.818Z,25.78
2018-09-21T14:35:31.323Z,25.57
2018-09-21T14:38:00.163Z,25.36
2018-09-21T14:40:28.606Z,25.23
2018-09-21T14:42:57.374Z,25.14
2018-09-21T14:45:25.807Z,25.06
2018-09-21T14:47:54.415Z,25.03
2018-09-21T14:50:23.644Z,25.03
2018-09-21T14:52:52.180Z,25.01
2018-09-21T14:55:20.645Z,25.03
2018-09-21T14:57:49.563Z,25.04
2018-09-21T15:00:18.085Z,25.01
2018-09-21T15:02:46.595Z,25.00
2018-09-21T15:05:15.209Z,24.97
2018-09-21T15:07:43.659Z,24.94
2018-09-21T15:10:12.226Z,24.90
2018-09-21T15:12:40.726Z,24.84
2018-09-21T15:15:09.274Z,24.82
2018-09-21T15:17:37.850Z,24.78
2018-09-21T15:20:06.803Z,24.72
2018-09-21T15:22:35.322Z,24.63
2018-09-21T15:25:04.135Z,24.52
2018-09-21T15:27:32.702Z,24.31
2018-09-21T15:30:01.623Z,24.19
2018-09-21T15:32:30.149Z,24.09
2018-09-21T15:34:58.706Z,24.00
2018-09-21T15:37:27.200Z,23.96
2018-09-21T15:39:55.779Z,23.86
2018-09-21T15:42:24.370Z,23.59
2018-09-21T15:44:52.847Z,23.37
2018-09-21T15:47:21.543Z,23.08
2018-09-21T15:49:50.030Z,22.66
2018-09-21T15:52:18.588Z,22.11
2018-09-21T15:54:47.123Z,21.98
2018-09-21T15:57:15.648Z,21.57
2018-09-21T15:59:44.277Z,21.24
2018-09-21T16:02:12.686Z,21.07
2018-09-21T16:04:41.526Z,20.85
2018-09-21T16:07:10.101Z,20.70
2018-09-21T16:09:38.633Z,20.49
2018-09-21T16:12:07.341Z,20.12
2018-09-21T16:14:36.116Z,19.96
2018-09-21T16:17:04.953Z,19.87
2018-09-21T16:19:33.661Z,19.72
2018-09-21T16:22:02.179Z,19.42
2018-09-21T16:24:31.010Z,19.26
2018-09-21T16:26:59.551Z,19.10
2018-09-21T16:29:28.145Z,18.95
2018-09-21T16:31:56.613Z,18.81
2018-09-21T16:34:25.247Z,18.75
2018-09-21T16:36:53.726Z,18.59
2018-09-21T16:39:22.453Z,18.50
2018-09-21T16:41:51.014Z,18.33
2018-09-21T16:44:19.609Z,18.25
2018-09-21T16:46:48.133Z,18.10
2018-09-21T16:49:16.600Z,18.02
2018-09-21T16:51:45.243Z,17.82
2018-09-21T16:54:13.757Z,17.71
2018-09-21T16:56:42.338Z,17.60
2018-09-21T16:59:10.773Z,17.51
2018-09-21T17:01:39.481Z,17.43
2018-09-21T17:04:07.982Z,17.36
2018-09-21T17:06:36.957Z,17.29
2018-09-21T17:09:08.557Z,17.30
2018-09-21T17:11:37.158Z,17.12
2018-09-21T17:14:05.895Z,16.92
2018-09-21T17:16:34.541Z,16.84
2018-09-21T17:19:03.062Z,16.79
2018-09-21T17:21:31.860Z,16.73
2018-09-21T17:24:00.294Z,16.67
2018-09-21T17:26:29.070Z,16.59
2018-09-21T17:28:57.613Z,16.50
2018-09-21T17:31:26.410Z,16.38
2018-09-21T17:33:54.868Z,16.25
2018-09-21T17:36:23.382Z,16.09
2018-09-21T17:38:51.919Z,15.98
2018-09-21T17:41:20.398Z,15.82
2018-09-21T17:43:48.879Z,15.75
2018-09-21T17:46:17.378Z,15.75
2018-09-21T17:48:46.337Z,15.31
2018-09-21T17:51:14.778Z,14.80
2018-09-21T17:53:43.210Z,14.59
2018-09-21T17:56:11.727Z,14.44
2018-09-21T17:58:40.173Z,14.26
2018-09-21T18:01:08.654Z,14.02
2018-09-21T18:03:37.155Z,13.78
2018-09-21T18:06:05.932Z,13.52
2018-09-21T18:08:34.402Z,13.26
2018-09-21T18:11:02.973Z,13.15
2018-09-21T18:13:31.519Z,13.05
2018-09-21T18:16:00.133Z,13.00
2018-09-21T18:18:28.567Z,12.99
2018-09-21T18:20:57.067Z,12.93
2018-09-21T18:23:25.601Z,12.97
2018-09-21T18:25:54.124Z,12.91
2018-09-21T18:28:22.682Z,12.93
2018-09-21T18:30:51.191Z,12.90
2018-09-21T18:33:19.651Z,12.89
2018-09-21T18:35:48.229Z,12.93
2018-09-21T18:38:16.721Z,12.89
2018-09-21T18:40:45.194Z,12.90
2018-09-21T18:43:13.737Z,12.87
2018-09-21T18:45:42.262Z,12.89
2018-09-21T18:48:10.754Z,12.86
2018-09-21T18:50:39.412Z,12.79
2018-09-21T18:53:07.866Z,12.82
2018-09-21T18:55:36.619Z,12.76
2018-09-21T18:58:05.362Z,12.91
2018-09-21T19:00:34.058Z,12.91
2018-09-21T19:03:02.576Z,12.95
2018-09-21T19:05:31.129Z,12.95
2018-09-21T19:07:59.670Z,13.03
2018-09-21T19:10:28.211Z,13.06
2018-09-21T19:12:56.696Z,13.13
2018-09-21T19:15:25.179Z,13.15
2018-09-21T19:17:53.648Z,12.98
2018-09-21T19:20:22.104Z,12.94
2018-09-21T19:22:50.631Z,12.82
2018-09-21T19:25:19.093Z,12.85
2018-09-21T19:27:47.633Z,12.84
2018-09-21T19:30:16.141Z,12.74
2018-09-21T19:32:44.670Z,12.73
2018-09-21T19:35:13.157Z,12.61
2018-09-21T19:37:41.818Z,12.56
2018-09-21T19:40:10.299Z,12.47
2018-09-21T19:42:38.860Z,12.38
2018-09-21T19:45:07.780Z,12.39
2018-09-21T19:47:36.152Z,12.31
2018-09-21T19:50:05.857Z,12.25
2018-09-21T19:52:34.330Z,12.31
2018-09-21T19:55:02.947Z,12.24
2018-09-21T19:57:31.488Z,12.36
2018-09-21T20:00:00.129Z,12.43
2018-09-21T20:02:28.648Z,12.63
2018-09-21T20:04:57.189Z,12.62
2018-09-21T20:07:25.717Z,12.57
2018-09-21T20:09:54.239Z,12.67
2018-09-21T20:12:22.691Z,12.68
2018-09-21T20:14:51.309Z,12.76
2018-09-21T20:17:19.786Z,12.81
2018-09-21T20:19:48.524Z,12.72
2018-09-21T20:22:17.072Z,12.73
2018-09-21T20:24:45.725Z,12.69
2018-09-21T20:27:14.186Z,12.75
2018-09-21T20:29:42.690Z,12.80
2018-09-21T20:32:16.478Z,12.74
2018-09-21T20:34:44.932Z,12.69
2018-09-21T20:37:13.570Z,12.66
2018-09-21T20:39:42.151Z,12.55
2018-09-21T20:42:10.646Z,12.67
2018-09-21T20:44:39.134Z,12.63
2018-09-21T20:47:07.744Z,12.56
2018-09-21T20:49:36.303Z,12.50
2018-09-21T20:52:04.970Z,12.41
2018-09-21T20:54:33.441Z,12.32
2018-09-21T20:57:01.907Z,12.38
2018-09-21T20:59:30.497Z,12.35
2018-09-21T21:01:58.967Z,12.36
2018-09-21T21:04:27.478Z,12.38
2018-09-21T21:06:55.937Z,12.34
2018-09-21T21:09:24.457Z,12.35
2018-09-21T21:11:53.023Z,12.35
2018-09-21T21:14:21.511Z,12.32
2018-09-21T21:16:50.049Z,12.24
2018-09-21T21:19:18.581Z,12.24
2018-09-21T21:21:47.067Z,12.25
2018-09-21T21:24:15.577Z,12.26
2018-09-21T21:26:44.098Z,12.37
2018-09-21T21:29:12.590Z,12.40
2018-09-21T21:31:41.073Z,12.46
2018-09-21T21:34:09.598Z,12.39
2018-09-21T21:36:38.726Z,12.29
2018-09-21T21:39:09.241Z,12.28
2018-09-21T21:41:38.320Z,12.20
2018-09-21T21:44:07.114Z,12.17
2018-09-21T21:46:35.719Z,12.11
2018-09-21T21:49:05.682Z,12.18
2018-09-21T21:51:34.251Z,12.17
2018-09-21T21:54:02.747Z,12.13
2018-09-21T21:56:31.225Z,12.09
2018-09-21T21:58:59.795Z,12.12
2018-09-21T22:01:33.566Z,12.06
2018-09-21T22:04:02.091Z,12.04
2018-09-21T22:06:30.834Z,12.01
2018-09-21T22:08:59.266Z,12.05
2018-09-21T22:11:33.188Z,12.18
2018-09-21T22:14:07.361Z,12.19
2018-09-21T22:16:36.198Z,12.22
2018-09-21T22:19:05.138Z,12.18
2018-09-21T22:21:33.975Z,12.21
2018-09-21T22:24:03.071Z,12.25
2018-09-21T22:26:32.007Z,12.28
2018-09-21T22:29:00.900Z,12.38
2018-09-21T22:31:29.903Z,12.44
2018-09-21T22:33:58.570Z,12.45
2018-09-21T22:36:27.099Z,12.40
2018-09-21T22:38:56.045Z,12.39
2018-09-21T22:41:24.574Z,12.33
2018-09-21T22:43:53.066Z,12.31
2018-09-21T22:46:21.572Z,12.30
2018-09-21T22:48:50.191Z,12.25
2018-09-21T22:51:18.782Z,12.20
2018-09-21T22:53:47.281Z,12.19
2018-09-21T22:56:15.930Z,12.17
2018-09-21T22:58:44.439Z,12.20
2018-09-21T23:01:13.106Z,12.23
2018-09-21T23:03:41.628Z,12.32
2018-09-21T23:06:10.282Z,12.34
2018-09-21T23:08:38.894Z,12.32
2018-09-21T23:11:07.450Z,12.24
2018-09-21T23:13:36.289Z,12.26
2018-09-21T23:16:05.241Z,12.33
2018-09-21T23:18:33.757Z,12.37
2018-09-21T23:21:02.206Z,12.32
2018-09-21T23:23:30.691Z,12.26
2018-09-21T23:25:59.145Z,12.25
2018-09-21T23:28:27.659Z,12.20
2018-09-21T23:30:56.109Z,12.20
2018-09-21T23:33:24.634Z,12.20
2018-09-21T23:35:53.092Z,12.16
2018-09-21T23:38:21.589Z,12.06
2018-09-21T23:40:50.074Z,12.07
2018-09-21T23:43:18.726Z,12.00
2018-09-21T23:45:47.265Z,11.98
2018-09-21T23:48:15.718Z,12.00
2018-09-21T23:50:44.200Z,11.99
2018-09-21T23:53:12.707Z,11.95
2018-09-21T23:55:41.166Z,11.94
2018-09-21T23:58:09.748Z,12.01
